sensor_id;sensor_type;location;lat;lon;timestamp;P1;durP1;ratioP1;P2;durP2;ratioP2
44774;SDS011;31340;51.402;0.016;2022-12-24T00:01:20;47.40;;;7.93;;
44774;SDS011;31340;51.402;0.016;2022-12-24T00:03:47;45.58;;;6.75;;
44774;SDS011;31340;51.402;0.016;2022-12-24T00:06:17;46.58;;;8.02;;
44774;SDS011;31340;51.402;0.016;2022-12-24T00:08:47;40.15;;;6.40;;
44774;SDS011;31340;51.402;0.016;2022-12-24T00:11:15;45.03;;;6.75;;
44774;SDS011;31340;51.402;0.016;2022-12-24T00:13:43;46.55;;;6.50;;
44774;SDS011;31340;51.402;0.016;2022-12-24T00:16:10;45.92;;;7.63;;
44774;SDS011;31340;51.402;0.016;2022-12-24T00:18:38;47.88;;;6.63;;
44774;SDS011;31340;51.402;0.016;2022-12-24T00:21:12;50.42;;;7.45;;
44774;SDS011;31340;51.402;0.016;2022-12-24T00:23:41;55.55;;;8.43;;
44774;SDS011;31340;51.402;0.016;2022-12-24T00:26:09;51.90;;;6.53;;
44774;SDS011;31340;51.402;0.016;2022-12-24T00:28:36;40.63;;;6.53;;
44774;SDS011;31340;51.402;0.016;2022-12-24T00:31:08;42.13;;;7.15;;
44774;SDS011;31340;51.402;0.016;2022-12-24T00:33:38;40.33;;;7.30;;
44774;SDS011;31340;51.402;0.016;2022-12-24T00:36:06;53.60;;;8.80;;
44774;SDS011;31340;51.402;0.016;2022-12-24T00:38:35;46.72;;;8.40;;
44774;SDS011;31340;51.402;0.016;2022-12-24T00:41:04;45.05;;;7.10;;
44774;SDS011;31340;51.402;0.016;2022-12-24T00:43:51;45.33;;;7.25;;
44774;SDS011;31340;51.402;0.016;2022-12-24T00:46:20;47.97;;;8.93;;
44774;SDS011;31340;51.402;0.016;2022-12-24T00:48:49;63.63;;;8.10;;
44774;SDS011;31340;51.402;0.016;2022-12-24T00:51:17;38.30;;;7.70;;
44774;SDS011;31340;51.402;0.016;2022-12-24T00:53:46;50.45;;;8.93;;
44774;SDS011;31340;51.402;0.016;2022-12-24T00:56:14;44.67;;;6.35;;
44774;SDS011;31340;51.402;0.016;2022-12-24T00:58:41;58.55;;;7.90;;
44774;SDS011;31340;51.402;0.016;2022-12-24T01:01:09;42.38;;;7.57;;
44774;SDS011;31340;51.402;0.016;2022-12-24T01:03:37;44.55;;;7.22;;
44774;SDS011;31340;51.402;0.016;2022-12-24T01:08:38;43.92;;;6.55;;
44774;SDS011;31340;51.402;0.016;2022-12-24T01:11:06;48.83;;;7.68;;
44774;SDS011;31340;51.402;0.016;2022-12-24T01:13:35;50.75;;;7.82;;
44774;SDS011;31340;51.402;0.016;2022-12-24T01:16:11;50.28;;;6.57;;
44774;SDS011;31340;51.402;0.016;2022-12-24T01:18:41;52.55;;;7.68;;
44774;SDS011;31340;51.402;0.016;2022-12-24T01:21:08;50.85;;;6.50;;
44774;SDS011;31340;51.402;0.016;2022-12-24T01:23:36;56.88;;;7.55;;
44774;SDS011;31340;51.402;0.016;2022-12-24T01:26:03;45.67;;;7.00;;
44774;SDS011;31340;51.402;0.016;2022-12-24T01:28:31;49.45;;;7.57;;
44774;SDS011;31340;51.402;0.016;2022-12-24T01:30:59;42.53;;;6.13;;
44774;SDS011;31340;51.402;0.016;2022-12-24T01:33:27;56.55;;;7.25;;
44774;SDS011;31340;51.402;0.016;2022-12-24T01:35:56;48.33;;;7.05;;
44774;SDS011;31340;51.402;0.016;2022-12-24T01:38:23;51.53;;;7.00;;
44774;SDS011;31340;51.402;0.016;2022-12-24T01:40:51;50.08;;;6.47;;
44774;SDS011;31340;51.402;0.016;2022-12-24T01:43:37;39.35;;;5.65;;
44774;SDS011;31340;51.402;0.016;2022-12-24T01:46:06;46.30;;;7.65;;
44774;SDS011;31340;51.402;0.016;2022-12-24T01:48:46;59.15;;;7.35;;
44774;SDS011;31340;51.402;0.016;2022-12-24T01:54:28;51.28;;;7.72;;
44774;SDS011;31340;51.402;0.016;2022-12-24T01:56:58;46.55;;;7.13;;
44774;SDS011;31340;51.402;0.016;2022-12-24T01:59:39;56.75;;;8.43;;
44774;SDS011;31340;51.402;0.016;2022-12-24T02:02:12;58.55;;;7.88;;
44774;SDS011;31340;51.402;0.016;2022-12-24T02:04:50;53.88;;;8.27;;
44774;SDS011;31340;51.402;0.016;2022-12-24T02:07:35;56.47;;;8.00;;
44774;SDS011;31340;51.402;0.016;2022-12-24T02:10:04;63.33;;;8.10;;
44774;SDS011;31340;51.402;0.016;2022-12-24T02:12:34;54.20;;;8.10;;
44774;SDS011;31340;51.402;0.016;2022-12-24T02:15:04;51.40;;;7.22;;
44774;SDS011;31340;51.402;0.016;2022-12-24T02:31:02;56.92;;;8.05;;
44774;SDS011;31340;51.402;0.016;2022-12-24T02:33:36;51.72;;;7.43;;
44774;SDS011;31340;51.402;0.016;2022-12-24T02:36:28;54.55;;;7.25;;
44774;SDS011;31340;51.402;0.016;2022-12-24T02:39:02;58.85;;;7.25;;
44774;SDS011;31340;51.402;0.016;2022-12-24T02:41:36;59.97;;;8.65;;
44774;SDS011;31340;51.402;0.016;2022-12-24T02:44:26;47.17;;;6.82;;
44774;SDS011;31340;51.402;0.016;2022-12-24T02:46:56;50.40;;;7.67;;
44774;SDS011;31340;51.402;0.016;2022-12-24T02:49:26;64.60;;;8.57;;
44774;SDS011;31340;51.402;0.016;2022-12-24T02:51:54;66.15;;;7.82;;
44774;SDS011;31340;51.402;0.016;2022-12-24T02:54:21;48.72;;;7.35;;
44774;SDS011;31340;51.402;0.016;2022-12-24T02:57:11;59.47;;;8.23;;
44774;SDS011;31340;51.402;0.016;2022-12-24T03:02:45;50.85;;;7.10;;
44774;SDS011;31340;51.402;0.016;2022-12-24T03:08:38;43.67;;;7.13;;
44774;SDS011;31340;51.402;0.016;2022-12-24T03:11:11;51.97;;;7.93;;
44774;SDS011;31340;51.402;0.016;2022-12-24T03:13:41;59.05;;;9.38;;
44774;SDS011;31340;51.402;0.016;2022-12-24T03:16:14;51.28;;;7.72;;
44774;SDS011;31340;51.402;0.016;2022-12-24T03:18:47;45.33;;;7.65;;
44774;SDS011;31340;51.402;0.016;2022-12-24T03:23:48;51.78;;;6.82;;
44774;SDS011;31340;51.402;0.016;2022-12-24T03:26:17;67.80;;;9.07;;
44774;SDS011;31340;51.402;0.016;2022-12-24T03:28:46;48.55;;;6.20;;
44774;SDS011;31340;51.402;0.016;2022-12-24T03:31:14;70.78;;;8.07;;
44774;SDS011;31340;51.402;0.016;2022-12-24T03:33:44;51.30;;;8.75;;
44774;SDS011;31340;51.402;0.016;2022-12-24T03:36:12;55.97;;;8.82;;
44774;SDS011;31340;51.402;0.016;2022-12-24T03:38:40;50.00;;;7.07;;
44774;SDS011;31340;51.402;0.016;2022-12-24T03:41:08;52.67;;;7.82;;
44774;SDS011;31340;51.402;0.016;2022-12-24T03:43:36;59.28;;;7.43;;
44774;SDS011;31340;51.402;0.016;2022-12-24T03:46:06;56.75;;;7.82;;
44774;SDS011;31340;51.402;0.016;2022-12-24T03:48:35;46.75;;;6.68;;
44774;SDS011;31340;51.402;0.016;2022-12-24T03:51:03;51.30;;;7.07;;
44774;SDS011;31340;51.402;0.016;2022-12-24T03:53:30;49.63;;;8.38;;
44774;SDS011;31340;51.402;0.016;2022-12-24T03:55:58;52.33;;;8.00;;
44774;SDS011;31340;51.402;0.016;2022-12-24T03:58:26;56.85;;;7.63;;
44774;SDS011;31340;51.402;0.016;2022-12-24T04:00:53;59.25;;;6.93;;
44774;SDS011;31340;51.402;0.016;2022-12-24T04:03:21;50.08;;;6.80;;
44774;SDS011;31340;51.402;0.016;2022-12-24T04:05:58;40.85;;;5.95;;
44774;SDS011;31340;51.402;0.016;2022-12-24T04:08:30;57.22;;;7.35;;
44774;SDS011;31340;51.402;0.016;2022-12-24T04:10:57;41.70;;;6.60;;
44774;SDS011;31340;51.402;0.016;2022-12-24T04:13:32;45.00;;;6.53;;
44774;SDS011;31340;51.402;0.016;2022-12-24T04:16:00;47.92;;;6.78;;
44774;SDS011;31340;51.402;0.016;2022-12-24T04:18:32;50.97;;;7.50;;
44774;SDS011;31340;51.402;0.016;2022-12-24T04:21:00;51.42;;;7.25;;
44774;SDS011;31340;51.402;0.016;2022-12-24T04:23:32;38.55;;;6.90;;
44774;SDS011;31340;51.402;0.016;2022-12-24T04:26:01;42.20;;;6.80;;
44774;SDS011;31340;51.402;0.016;2022-12-24T04:28:30;46.08;;;6.13;;
44774;SDS011;31340;51.402;0.016;2022-12-24T04:30:59;40.30;;;6.43;;
44774;SDS011;31340;51.402;0.016;2022-12-24T04:33:31;46.50;;;5.80;;
44774;SDS011;31340;51.402;0.016;2022-12-24T04:35:59;48.47;;;6.40;;
44774;SDS011;31340;51.402;0.016;2022-12-24T04:38:28;52.08;;;6.32;;
44774;SDS011;31340;51.402;0.016;2022-12-24T04:41:03;49.58;;;8.73;;
44774;SDS011;31340;51.402;0.016;2022-12-24T04:43:32;43.85;;;6.57;;
44774;SDS011;31340;51.402;0.016;2022-12-24T04:46:06;42.22;;;6.07;;
44774;SDS011;31340;51.402;0.016;2022-12-24T04:48:36;43.63;;;5.53;;
44774;SDS011;31340;51.402;0.016;2022-12-24T04:51:04;42.65;;;7.13;;
44774;SDS011;31340;51.402;0.016;2022-12-24T04:53:33;47.88;;;6.60;;
44774;SDS011;31340;51.402;0.016;2022-12-24T04:56:02;39.20;;;5.43;;
44774;SDS011;31340;51.402;0.016;2022-12-24T04:58:30;46.33;;;5.80;;
44774;SDS011;31340;51.402;0.016;2022-12-24T05:01:02;50.70;;;6.38;;
44774;SDS011;31340;51.402;0.016;2022-12-24T05:03:33;37.13;;;4.95;;
44774;SDS011;31340;51.402;0.016;2022-12-24T05:06:05;36.65;;;4.97;;
44774;SDS011;31340;51.402;0.016;2022-12-24T05:08:34;42.42;;;6.07;;
44774;SDS011;31340;51.402;0.016;2022-12-24T05:11:02;42.40;;;6.28;;
44774;SDS011;31340;51.402;0.016;2022-12-24T05:13:29;47.58;;;5.85;;
44774;SDS011;31340;51.402;0.016;2022-12-24T05:16:10;46.42;;;5.53;;
44774;SDS011;31340;51.402;0.016;2022-12-24T05:18:38;46.20;;;5.72;;
44774;SDS011;31340;51.402;0.016;2022-12-24T05:21:10;31.35;;;4.85;;
44774;SDS011;31340;51.402;0.016;2022-12-24T05:23:41;31.25;;;5.07;;
44774;SDS011;31340;51.402;0.016;2022-12-24T05:26:34;46.03;;;6.00;;
44774;SDS011;31340;51.402;0.016;2022-12-24T05:29:02;38.42;;;5.55;;
44774;SDS011;31340;51.402;0.016;2022-12-24T05:31:31;47.78;;;5.75;;
44774;SDS011;31340;51.402;0.016;2022-12-24T05:34:00;35.35;;;4.80;;
44774;SDS011;31340;51.402;0.016;2022-12-24T05:36:29;38.45;;;5.63;;
44774;SDS011;31340;51.402;0.016;2022-12-24T05:38:57;32.10;;;5.25;;
44774;SDS011;31340;51.402;0.016;2022-12-24T05:41:25;41.90;;;6.57;;
44774;SDS011;31340;51.402;0.016;2022-12-24T05:43:53;46.97;;;6.05;;
44774;SDS011;31340;51.402;0.016;2022-12-24T05:46:21;27.08;;;5.30;;
44774;SDS011;31340;51.402;0.016;2022-12-24T05:48:51;31.50;;;4.60;;
44774;SDS011;31340;51.402;0.016;2022-12-24T05:51:19;48.08;;;6.03;;
44774;SDS011;31340;51.402;0.016;2022-12-24T05:53:48;41.20;;;6.15;;
44774;SDS011;31340;51.402;0.016;2022-12-24T05:56:18;48.90;;;6.38;;
44774;SDS011;31340;51.402;0.016;2022-12-24T05:58:50;49.10;;;6.57;;
44774;SDS011;31340;51.402;0.016;2022-12-24T06:01:20;40.17;;;5.57;;
44774;SDS011;31340;51.402;0.016;2022-12-24T06:03:49;28.75;;;4.45;;
44774;SDS011;31340;51.402;0.016;2022-12-24T06:06:18;29.65;;;4.32;;
44774;SDS011;31340;51.402;0.016;2022-12-24T06:08:48;32.70;;;5.75;;
44774;SDS011;31340;51.402;0.016;2022-12-24T06:11:17;40.05;;;6.03;;
44774;SDS011;31340;51.402;0.016;2022-12-24T06:13:46;37.15;;;5.53;;
44774;SDS011;31340;51.402;0.016;2022-12-24T06:16:15;49.55;;;6.13;;
44774;SDS011;31340;51.402;0.016;2022-12-24T06:18:44;36.53;;;5.05;;
44774;SDS011;31340;51.402;0.016;2022-12-24T06:21:13;32.90;;;5.47;;
44774;SDS011;31340;51.402;0.016;2022-12-24T06:23:41;36.72;;;5.07;;
44774;SDS011;31340;51.402;0.016;2022-12-24T06:26:14;37.90;;;5.40;;
44774;SDS011;31340;51.402;0.016;2022-12-24T06:28:46;43.17;;;5.65;;
44774;SDS011;31340;51.402;0.016;2022-12-24T06:31:16;36.55;;;6.03;;
44774;SDS011;31340;51.402;0.016;2022-12-24T06:33:46;48.35;;;5.88;;
44774;SDS011;31340;51.402;0.016;2022-12-24T06:36:24;36.35;;;5.13;;
44774;SDS011;31340;51.402;0.016;2022-12-24T06:38:52;37.15;;;5.80;;
44774;SDS011;31340;51.402;0.016;2022-12-24T06:41:21;37.65;;;6.07;;
44774;SDS011;31340;51.402;0.016;2022-12-24T06:43:50;39.85;;;6.97;;
44774;SDS011;31340;51.402;0.016;2022-12-24T06:46:18;47.58;;;6.43;;
44774;SDS011;31340;51.402;0.016;2022-12-24T06:48:47;35.78;;;5.80;;
44774;SDS011;31340;51.402;0.016;2022-12-24T06:51:15;47.13;;;6.95;;
44774;SDS011;31340;51.402;0.016;2022-12-24T06:53:46;33.20;;;6.00;;
44774;SDS011;31340;51.402;0.016;2022-12-24T06:56:17;47.88;;;5.63;;
44774;SDS011;31340;51.402;0.016;2022-12-24T06:58:46;45.40;;;5.55;;
44774;SDS011;31340;51.402;0.016;2022-12-24T07:01:15;35.97;;;4.75;;
44774;SDS011;31340;51.402;0.016;2022-12-24T07:06:17;49.20;;;6.38;;
44774;SDS011;31340;51.402;0.016;2022-12-24T07:08:49;35.08;;;5.53;;
44774;SDS011;31340;51.402;0.016;2022-12-24T07:11:17;39.03;;;5.60;;
44774;SDS011;31340;51.402;0.016;2022-12-24T07:13:45;39.05;;;5.93;;
44774;SDS011;31340;51.402;0.016;2022-12-24T07:16:12;48.15;;;7.40;;
44774;SDS011;31340;51.402;0.016;2022-12-24T07:18:41;47.13;;;5.32;;
44774;SDS011;31340;51.402;0.016;2022-12-24T07:21:08;44.53;;;5.25;;
44774;SDS011;31340;51.402;0.016;2022-12-24T07:23:36;33.17;;;5.10;;
44774;SDS011;31340;51.402;0.016;2022-12-24T07:26:04;35.55;;;6.07;;
44774;SDS011;31340;51.402;0.016;2022-12-24T07:28:33;46.08;;;5.95;;
44774;SDS011;31340;51.402;0.016;2022-12-24T07:31:00;41.88;;;5.88;;
44774;SDS011;31340;51.402;0.016;2022-12-24T07:33:28;43.88;;;6.28;;
44774;SDS011;31340;51.402;0.016;2022-12-24T07:36:02;39.42;;;5.35;;
44774;SDS011;31340;51.402;0.016;2022-12-24T07:38:32;42.40;;;5.18;;
44774;SDS011;31340;51.402;0.016;2022-12-24T07:41:01;36.90;;;5.25;;
44774;SDS011;31340;51.402;0.016;2022-12-24T07:43:28;46.15;;;5.43;;
44774;SDS011;31340;51.402;0.016;2022-12-24T07:45:58;41.60;;;5.78;;
44774;SDS011;31340;51.402;0.016;2022-12-24T07:48:26;44.22;;;5.97;;
44774;SDS011;31340;51.402;0.016;2022-12-24T07:50:56;38.42;;;6.45;;
44774;SDS011;31340;51.402;0.016;2022-12-24T07:53:24;37.45;;;5.78;;
44774;SDS011;31340;51.402;0.016;2022-12-24T07:55:53;37.03;;;5.22;;
44774;SDS011;31340;51.402;0.016;2022-12-24T07:58:21;42.50;;;6.18;;
44774;SDS011;31340;51.402;0.016;2022-12-24T08:00:54;35.60;;;6.03;;
44774;SDS011;31340;51.402;0.016;2022-12-24T08:03:22;33.58;;;4.53;;
44774;SDS011;31340;51.402;0.016;2022-12-24T08:05:51;37.50;;;5.68;;
44774;SDS011;31340;51.402;0.016;2022-12-24T08:08:18;40.80;;;5.13;;
44774;SDS011;31340;51.402;0.016;2022-12-24T08:10:47;35.28;;;5.13;;
44774;SDS011;31340;51.402;0.016;2022-12-24T08:13:15;43.25;;;5.43;;
44774;SDS011;31340;51.402;0.016;2022-12-24T08:15:43;38.03;;;6.03;;
44774;SDS011;31340;51.402;0.016;2022-12-24T08:18:11;41.00;;;6.07;;
44774;SDS011;31340;51.402;0.016;2022-12-24T08:20:39;47.03;;;5.65;;
44774;SDS011;31340;51.402;0.016;2022-12-24T08:23:07;36.20;;;5.68;;
44774;SDS011;31340;51.402;0.016;2022-12-24T08:25:36;38.97;;;6.90;;
44774;SDS011;31340;51.402;0.016;2022-12-24T08:28:04;42.47;;;6.80;;
44774;SDS011;31340;51.402;0.016;2022-12-24T08:30:32;42.17;;;5.53;;
44774;SDS011;31340;51.402;0.016;2022-12-24T08:33:00;46.10;;;7.35;;
44774;SDS011;31340;51.402;0.016;2022-12-24T08:35:28;43.30;;;6.47;;
44774;SDS011;31340;51.402;0.016;2022-12-24T08:37:55;38.83;;;6.57;;
44774;SDS011;31340;51.402;0.016;2022-12-24T08:40:23;35.17;;;5.30;;
44774;SDS011;31340;51.402;0.016;2022-12-24T08:42:51;45.45;;;7.20;;
44774;SDS011;31340;51.402;0.016;2022-12-24T08:45:19;32.28;;;5.32;;
44774;SDS011;31340;51.402;0.016;2022-12-24T08:47:47;30.98;;;5.80;;
44774;SDS011;31340;51.402;0.016;2022-12-24T08:50:15;47.00;;;6.57;;
44774;SDS011;31340;51.402;0.016;2022-12-24T08:52:43;54.63;;;6.32;;
44774;SDS011;31340;51.402;0.016;2022-12-24T08:55:11;42.50;;;6.72;;
44774;SDS011;31340;51.402;0.016;2022-12-24T08:57:38;45.45;;;7.30;;
44774;SDS011;31340;51.402;0.016;2022-12-24T09:00:06;40.35;;;6.22;;
44774;SDS011;31340;51.402;0.016;2022-12-24T09:02:35;38.35;;;6.15;;
44774;SDS011;31340;51.402;0.016;2022-12-24T09:05:04;44.45;;;7.13;;
44774;SDS011;31340;51.402;0.016;2022-12-24T09:07:32;36.08;;;5.93;;
44774;SDS011;31340;51.402;0.016;2022-12-24T09:09:59;26.88;;;6.30;;
44774;SDS011;31340;51.402;0.016;2022-12-24T09:12:28;34.97;;;6.57;;
44774;SDS011;31340;51.402;0.016;2022-12-24T09:14:55;34.63;;;6.90;;
44774;SDS011;31340;51.402;0.016;2022-12-24T09:17:29;29.95;;;5.72;;
44774;SDS011;31340;51.402;0.016;2022-12-24T09:20:01;29.50;;;6.07;;
44774;SDS011;31340;51.402;0.016;2022-12-24T09:22:30;33.33;;;5.72;;
44774;SDS011;31340;51.402;0.016;2022-12-24T09:24:57;37.55;;;6.15;;
44774;SDS011;31340;51.402;0.016;2022-12-24T09:27:25;36.55;;;6.28;;
44774;SDS011;31340;51.402;0.016;2022-12-24T09:29:52;36.45;;;6.13;;
44774;SDS011;31340;51.402;0.016;2022-12-24T09:32:20;33.55;;;6.43;;
44774;SDS011;31340;51.402;0.016;2022-12-24T09:34:48;31.70;;;5.75;;
44774;SDS011;31340;51.402;0.016;2022-12-24T09:37:15;36.83;;;6.45;;
44774;SDS011;31340;51.402;0.016;2022-12-24T09:39:44;36.08;;;5.88;;
44774;SDS011;31340;51.402;0.016;2022-12-24T09:42:54;32.95;;;5.93;;
44774;SDS011;31340;51.402;0.016;2022-12-24T09:45:22;31.35;;;5.30;;
44774;SDS011;31340;51.402;0.016;2022-12-24T09:48:16;41.45;;;6.50;;
44774;SDS011;31340;51.402;0.016;2022-12-24T09:53:17;37.95;;;7.65;;
44774;SDS011;31340;51.402;0.016;2022-12-24T09:55:51;40.78;;;5.90;;
44774;SDS011;31340;51.402;0.016;2022-12-24T09:58:23;27.38;;;4.78;;
44774;SDS011;31340;51.402;0.016;2022-12-24T10:00:56;33.53;;;5.95;;
44774;SDS011;31340;51.402;0.016;2022-12-24T10:03:24;32.58;;;4.78;;
44774;SDS011;31340;51.402;0.016;2022-12-24T10:11:15;25.35;;;4.88;;
44774;SDS011;31340;51.402;0.016;2022-12-24T10:16:23;39.60;;;4.35;;
44774;SDS011;31340;51.402;0.016;2022-12-24T10:19:17;23.00;;;5.13;;
44774;SDS011;31340;51.402;0.016;2022-12-24T10:27:20;34.13;;;5.20;;
44774;SDS011;31340;51.402;0.016;2022-12-24T10:29:53;30.70;;;4.85;;
44774;SDS011;31340;51.402;0.016;2022-12-24T10:32:28;34.22;;;5.60;;
44774;SDS011;31340;51.402;0.016;2022-12-24T10:37:43;33.90;;;4.97;;
44774;SDS011;31340;51.402;0.016;2022-12-24T10:40:19;28.90;;;5.78;;
44774;SDS011;31340;51.402;0.016;2022-12-24T10:43:16;35.63;;;6.40;;
44774;SDS011;31340;51.402;0.016;2022-12-24T10:45:52;32.22;;;6.20;;
44774;SDS011;31340;51.402;0.016;2022-12-24T10:48:44;37.35;;;6.40;;
44774;SDS011;31340;51.402;0.016;2022-12-24T10:51:31;22.25;;;5.40;;
44774;SDS011;31340;51.402;0.016;2022-12-24T10:54:07;26.33;;;5.63;;
44774;SDS011;31340;51.402;0.016;2022-12-24T10:56:58;32.45;;;4.97;;
44774;SDS011;31340;51.402;0.016;2022-12-24T10:59:28;26.23;;;5.32;;
44774;SDS011;31340;51.402;0.016;2022-12-24T11:02:00;35.45;;;6.68;;
44774;SDS011;31340;51.402;0.016;2022-12-24T11:04:29;34.20;;;6.90;;
44774;SDS011;31340;51.402;0.016;2022-12-24T11:07:05;26.97;;;5.27;;
44774;SDS011;31340;51.402;0.016;2022-12-24T11:09:43;31.27;;;6.55;;
44774;SDS011;31340;51.402;0.016;2022-12-24T11:12:45;31.13;;;5.13;;
44774;SDS011;31340;51.402;0.016;2022-12-24T11:15:34;35.40;;;5.43;;
44774;SDS011;31340;51.402;0.016;2022-12-24T11:18:03;24.70;;;5.10;;
44774;SDS011;31340;51.402;0.016;2022-12-24T11:20:39;22.77;;;4.75;;
44774;SDS011;31340;51.402;0.016;2022-12-24T11:23:08;30.85;;;5.78;;
44774;SDS011;31340;51.402;0.016;2022-12-24T11:25:45;37.83;;;6.97;;
44774;SDS011;31340;51.402;0.016;2022-12-24T11:28:19;42.05;;;5.97;;
44774;SDS011;31340;51.402;0.016;2022-12-24T11:30:57;39.83;;;6.85;;
44774;SDS011;31340;51.402;0.016;2022-12-24T11:33:25;46.22;;;7.05;;
44774;SDS011;31340;51.402;0.016;2022-12-24T11:36:03;40.65;;;6.28;;
44774;SDS011;31340;51.402;0.016;2022-12-24T11:38:33;32.85;;;6.20;;
44774;SDS011;31340;51.402;0.016;2022-12-24T11:41:10;32.75;;;6.10;;
44774;SDS011;31340;51.402;0.016;2022-12-24T11:43:39;37.17;;;6.38;;
44774;SDS011;31340;51.402;0.016;2022-12-24T11:48:41;44.90;;;6.90;;
44774;SDS011;31340;51.402;0.016;2022-12-24T11:51:22;37.78;;;6.35;;
44774;SDS011;31340;51.402;0.016;2022-12-24T11:53:57;41.63;;;5.93;;
44774;SDS011;31340;51.402;0.016;2022-12-24T11:56:48;39.88;;;5.38;;
44774;SDS011;31340;51.402;0.016;2022-12-24T11:59:37;33.78;;;7.03;;
44774;SDS011;31340;51.402;0.016;2022-12-24T12:04:51;33.15;;;6.15;;
44774;SDS011;31340;51.402;0.016;2022-12-24T12:07:27;40.28;;;6.15;;
44774;SDS011;31340;51.402;0.016;2022-12-24T12:12:44;41.80;;;6.72;;
44774;SDS011;31340;51.402;0.016;2022-12-24T12:18:41;48.83;;;7.03;;
44774;SDS011;31340;51.402;0.016;2022-12-24T12:21:19;39.40;;;7.65;;
44774;SDS011;31340;51.402;0.016;2022-12-24T12:23:52;37.47;;;6.20;;
44774;SDS011;31340;51.402;0.016;2022-12-24T12:26:29;43.63;;;7.15;;
44774;SDS011;31340;51.402;0.016;2022-12-24T12:31:47;37.85;;;5.78;;
44774;SDS011;31340;51.402;0.016;2022-12-24T12:34:19;43.13;;;6.65;;
44774;SDS011;31340;51.402;0.016;2022-12-24T12:36:55;33.40;;;7.13;;
44774;SDS011;31340;51.402;0.016;2022-12-24T12:39:29;38.15;;;7.78;;
44774;SDS011;31340;51.402;0.016;2022-12-24T12:42:06;37.45;;;7.50;;
44774;SDS011;31340;51.402;0.016;2022-12-24T12:50:28;52.90;;;8.00;;
44774;SDS011;31340;51.402;0.016;2022-12-24T12:53:30;42.88;;;7.43;;
44774;SDS011;31340;51.402;0.016;2022-12-24T12:59:10;41.58;;;6.40;;
44774;SDS011;31340;51.402;0.016;2022-12-24T13:18:22;50.67;;;8.25;;
44774;SDS011;31340;51.402;0.016;2022-12-24T13:21:17;51.42;;;7.88;;
44774;SDS011;31340;51.402;0.016;2022-12-24T13:23:48;50.92;;;8.57;;
44774;SDS011;31340;51.402;0.016;2022-12-24T13:26:16;40.53;;;7.72;;
44774;SDS011;31340;51.402;0.016;2022-12-24T13:28:44;46.25;;;8.20;;
44774;SDS011;31340;51.402;0.016;2022-12-24T13:33:52;55.72;;;7.97;;
44774;SDS011;31340;51.402;0.016;2022-12-24T13:36:22;44.80;;;7.60;;
44774;SDS011;31340;51.402;0.016;2022-12-24T13:38:56;56.00;;;8.48;;
44774;SDS011;31340;51.402;0.016;2022-12-24T13:47:17;42.85;;;7.18;;
44774;SDS011;31340;51.402;0.016;2022-12-24T13:49:31;55.20;;;8.60;;
44774;SDS011;31340;51.402;0.016;2022-12-24T13:54:38;48.35;;;8.55;;
44774;SDS011;31340;51.402;0.016;2022-12-24T14:00:05;49.58;;;10.30;;
44774;SDS011;31340;51.402;0.016;2022-12-24T14:07:55;48.20;;;8.40;;
44774;SDS011;31340;51.402;0.016;2022-12-24T14:10:25;57.83;;;8.85;;
44774;SDS011;31340;51.402;0.016;2022-12-24T14:13:00;54.42;;;7.18;;
44774;SDS011;31340;51.402;0.016;2022-12-24T14:15:44;47.90;;;7.25;;
44774;SDS011;31340;51.402;0.016;2022-12-24T14:18:17;53.08;;;7.80;;
44774;SDS011;31340;51.402;0.016;2022-12-24T14:20:48;51.72;;;6.82;;
44774;SDS011;31340;51.402;0.016;2022-12-24T14:23:27;51.40;;;6.53;;
44774;SDS011;31340;51.402;0.016;2022-12-24T14:25:56;37.83;;;7.78;;
44774;SDS011;31340;51.402;0.016;2022-12-24T14:28:29;50.03;;;7.97;;
44774;SDS011;31340;51.402;0.016;2022-12-24T14:31:10;37.45;;;7.68;;
44774;SDS011;31340;51.402;0.016;2022-12-24T14:33:41;52.25;;;7.68;;
44774;SDS011;31340;51.402;0.016;2022-12-24T14:36:09;50.30;;;7.80;;
44774;SDS011;31340;51.402;0.016;2022-12-24T14:38:40;46.35;;;7.35;;
44774;SDS011;31340;51.402;0.016;2022-12-24T14:41:17;47.75;;;8.75;;
44774;SDS011;31340;51.402;0.016;2022-12-24T14:43:56;49.00;;;7.85;;
44774;SDS011;31340;51.402;0.016;2022-12-24T14:49:44;45.30;;;7.43;;
44774;SDS011;31340;51.402;0.016;2022-12-24T14:52:39;42.50;;;7.18;;
44774;SDS011;31340;51.402;0.016;2022-12-24T14:55:36;46.42;;;8.25;;
44774;SDS011;31340;51.402;0.016;2022-12-24T15:00:46;55.15;;;9.43;;
44774;SDS011;31340;51.402;0.016;2022-12-24T15:03:16;47.33;;;7.03;;
44774;SDS011;31340;51.402;0.016;2022-12-24T15:05:45;52.25;;;8.07;;
44774;SDS011;31340;51.402;0.016;2022-12-24T15:08:29;42.72;;;7.97;;
44774;SDS011;31340;51.402;0.016;2022-12-24T15:11:00;50.45;;;8.10;;
44774;SDS011;31340;51.402;0.016;2022-12-24T15:13:35;56.80;;;8.30;;
44774;SDS011;31340;51.402;0.016;2022-12-24T15:16:07;45.53;;;8.35;;
44774;SDS011;31340;51.402;0.016;2022-12-24T15:18:41;50.95;;;7.88;;
44774;SDS011;31340;51.402;0.016;2022-12-24T15:21:15;50.65;;;8.35;;
44774;SDS011;31340;51.402;0.016;2022-12-24T15:23:48;51.05;;;7.75;;
44774;SDS011;31340;51.402;0.016;2022-12-24T15:29:12;47.55;;;7.70;;
44774;SDS011;31340;51.402;0.016;2022-12-24T15:31:56;47.38;;;8.27;;
44774;SDS011;31340;51.402;0.016;2022-12-24T15:37:02;50.85;;;8.15;;
44774;SDS011;31340;51.402;0.016;2022-12-24T15:39:33;52.85;;;7.82;;
44774;SDS011;31340;51.402;0.016;2022-12-24T15:42:00;40.90;;;7.20;;
44774;SDS011;31340;51.402;0.016;2022-12-24T15:44:41;43.65;;;8.45;;
44774;SDS011;31340;51.402;0.016;2022-12-24T15:47:15;52.75;;;8.13;;
44774;SDS011;31340;51.402;0.016;2022-12-24T15:49:46;56.65;;;8.38;;
44774;SDS011;31340;51.402;0.016;2022-12-24T15:52:16;58.63;;;9.70;;
44774;SDS011;31340;51.402;0.016;2022-12-24T15:54:50;53.95;;;7.63;;
44774;SDS011;31340;51.402;0.016;2022-12-24T15:57:30;49.10;;;7.60;;
44774;SDS011;31340;51.402;0.016;2022-12-24T16:00:00;50.65;;;7.50;;
44774;SDS011;31340;51.402;0.016;2022-12-24T16:02:40;48.17;;;8.13;;
44774;SDS011;31340;51.402;0.016;2022-12-24T16:10:39;53.50;;;9.00;;
44774;SDS011;31340;51.402;0.016;2022-12-24T16:13:20;53.97;;;9.13;;
44774;SDS011;31340;51.402;0.016;2022-12-24T16:15:55;61.30;;;9.13;;
44774;SDS011;31340;51.402;0.016;2022-12-24T16:18:33;53.60;;;7.53;;
44774;SDS011;31340;51.402;0.016;2022-12-24T16:21:04;55.38;;;9.20;;
44774;SDS011;31340;51.402;0.016;2022-12-24T16:26:12;53.75;;;7.65;;
44774;SDS011;31340;51.402;0.016;2022-12-24T16:28:39;66.00;;;8.40;;
44774;SDS011;31340;51.402;0.016;2022-12-24T16:31:11;51.22;;;8.32;;
44774;SDS011;31340;51.402;0.016;2022-12-24T16:33:45;46.40;;;8.18;;
44774;SDS011;31340;51.402;0.016;2022-12-24T16:36:13;50.22;;;8.35;;
44774;SDS011;31340;51.402;0.016;2022-12-24T16:38:40;68.43;;;8.98;;
44774;SDS011;31340;51.402;0.016;2022-12-24T16:41:27;44.90;;;8.15;;
44774;SDS011;31340;51.402;0.016;2022-12-24T16:43:54;47.05;;;7.75;;
44774;SDS011;31340;51.402;0.016;2022-12-24T16:46:22;54.35;;;8.90;;
44774;SDS011;31340;51.402;0.016;2022-12-24T16:48:50;50.53;;;8.52;;
44774;SDS011;31340;51.402;0.016;2022-12-24T16:51:17;66.65;;;10.20;;
44774;SDS011;31340;51.402;0.016;2022-12-24T16:53:45;63.45;;;10.38;;
44774;SDS011;31340;51.402;0.016;2022-12-24T16:56:12;51.60;;;8.48;;
44774;SDS011;31340;51.402;0.016;2022-12-24T16:58:40;58.88;;;12.35;;
44774;SDS011;31340;51.402;0.016;2022-12-24T17:01:07;65.47;;;10.63;;
44774;SDS011;31340;51.402;0.016;2022-12-24T17:03:36;58.25;;;8.38;;
44774;SDS011;31340;51.402;0.016;2022-12-24T17:06:04;48.13;;;8.23;;
44774;SDS011;31340;51.402;0.016;2022-12-24T17:08:32;65.85;;;9.68;;